Time;durP1;ratioP1;P1;durP2;ratioP2;P2;SDS_P1;SDS_P2;PMS_P1;PMS_P2;Temp;Humidity;BMP_temperature;BMP_pressure;BME280_temperature;BME280_humidity;BME280_pressure;Samples;Min_cycle;Max_cycle;Signal;HPM_P1;HPM_P2
2022/03/03 00:00:45;;;;;;;;;;;3.80;60.30;;;;;;6155076;23;19928;-76
2022/03/03 00:03:12;;;;;;;;;;;3.80;60.60;;;;;;6155026;23;20339;-75
2022/03/03 00:05:38;;;;;;;;;;;3.80;60.70;;;;;;6155907;23;19917;-75
2022/03/03 00:08:05;;;;;;;;;;;3.80;61.70;;;;;;6155142;23;19921;-75
2022/03/03 00:10:32;;;;;;;;;;;3.80;62.10;;;;;;6155931;23;19917;-76
2022/03/03 00:12:59;;;;;;;;;;;3.80;62.10;;;;;;6158855;23;20334;-76
2022/03/03 00:15:26;;;;;;;;;;;3.80;62.00;;;;;;6153485;23;19921;-74
2022/03/03 00:17:52;;;;;;;;;;;3.80;62.00;;;;;;6155025;23;19928;-75
2022/03/03 00:20:19;;;;;;;;;;;3.80;62.60;;;;;;6154007;23;19967;-74
2022/03/03 00:22:46;;;;;;;;;;;3.80;62.70;;;;;;6153755;23;19948;-76
2022/03/03 00:25:13;;;;;;;;;;;3.80;63.00;;;;;;6155829;23;19917;-75
2022/03/03 00:27:39;;;;;;;;;;;3.80;63.40;;;;;;6155944;23;19917;-74
2022/03/03 00:30:06;;;;;;;;;;;3.80;63.20;;;;;;6154101;23;19917;-74
2022/03/03 00:32:40;;;;;;;;;;;3.70;64.20;;;;;;6156316;23;19916;-75
2022/03/03 00:35:11;;;;;;;;;;;3.60;64.30;;;;;;6154308;23;19983;-75
2022/03/03 00:37:38;;;;;;;;;;;3.70;63.70;;;;;;6154823;23;19963;-74
2022/03/03 00:40:05;;;;;;;;;;;3.60;63.60;;;;;;6156755;23;19920;-76
2022/03/03 00:42:32;;;;;;;;;;;3.60;63.30;;;;;;6154039;23;20254;-74
2022/03/03 00:44:59;;;;;;;;;;;3.70;63.10;;;;;;6155433;23;19920;-75
2022/03/03 00:47:26;;;;;;;;;;;3.70;63.70;;;;;;6153308;23;19939;-75
2022/03/03 00:49:53;;;;;;;;;;;3.60;62.60;;;;;;6152568;23;19943;-75
2022/03/03 00:52:19;;;;;;;;;;;3.60;63.70;;;;;;6153342;23;19916;-76
2022/03/03 00:54:46;;;;;;;;;;;3.70;63.80;;;;;;6152010;23;20298;-75
2022/03/03 00:57:13;;;;;;;;;;;3.70;64.40;;;;;;6153235;23;19916;-76
2022/03/03 00:59:40;;;;;;;;;;;3.70;63.80;;;;;;6152785;23;19917;-74
2022/03/03 01:02:06;;;;;;;;;;;3.70;64.20;;;;;;6156277;23;19944;-74
2022/03/03 01:04:33;;;;;;;;;;;3.70;64.70;;;;;;6156246;23;19917;-75
2022/03/03 01:07:00;;;;;;;;;;;3.70;64.00;;;;;;6154264;23;19917;-75
2022/03/03 01:09:27;;;;;;;;;;;3.70;63.90;;;;;;6153390;23;20294;-74
2022/03/03 01:11:55;;;;;;;;;;;3.70;64.40;;;;;;6155968;23;19920;-75
2022/03/03 01:14:23;;;;;;;;;;;3.80;64.10;;;;;;6156802;23;19979;-75
2022/03/03 01:16:50;;;;;;;;;;;3.80;64.40;;;;;;6154648;23;20356;-76
2022/03/03 01:19:18;;;;;;;;;;;3.80;64.30;;;;;;6155609;23;19920;-74
2022/03/03 01:21:45;;;;;;;;;;;3.80;64.60;;;;;;6158849;23;19916;-75
2022/03/03 01:24:12;;;;;;;;;;;3.80;65.10;;;;;;6156314;23;19916;-76
2022/03/03 01:26:40;;;;;;;;;;;3.80;64.50;;;;;;6153943;23;19917;-75
2022/03/03 01:29:07;;;;;;;;;;;3.80;64.50;;;;;;6154652;23;19963;-75
2022/03/03 01:31:33;;;;;;;;;;;3.80;64.80;;;;;;6157159;23;19917;-75
2022/03/03 01:34:00;;;;;;;;;;;3.80;64.70;;;;;;6159005;23;19921;-76
2022/03/03 01:36:27;;;;;;;;;;;3.80;64.90;;;;;;6158858;23;19916;-74
2022/03/03 01:38:54;;;;;;;;;;;3.80;64.40;;;;;;6159040;23;19939;-74
2022/03/03 01:41:21;;;;;;;;;;;3.80;64.60;;;;;;6158195;23;19924;-74
2022/03/03 01:43:48;;;;;;;;;;;3.80;64.90;;;;;;6156106;23;19923;-76
2022/03/03 01:46:16;;;;;;;;;;;3.80;64.70;;;;;;6156287;23;19916;-74
2022/03/03 01:48:43;;;;;;;;;;;3.70;66.80;;;;;;6155330;23;19939;-75
2022/03/03 01:51:11;;;;;;;;;;;3.70;67.60;;;;;;6154647;23;19923;-75
2022/03/03 01:53:38;;;;;;;;;;;3.60;66.30;;;;;;6157309;23;19916;-74
2022/03/03 01:56:05;;;;;;;;;;;3.70;66.60;;;;;;6156141;23;19983;-75
2022/03/03 01:58:32;;;;;;;;;;;3.70;66.60;;;;;;6179614;23;19923;-75
2022/03/03 02:00:59;;;;;;;;;;;3.70;66.20;;;;;;6157923;23;20334;-76
2022/03/03 02:03:26;;;;;;;;;;;3.70;65.80;;;;;;6158095;23;19921;-74
2022/03/03 02:05:53;;;;;;;;;;;3.70;65.40;;;;;;6156731;23;19940;-74
2022/03/03 02:08:19;;;;;;;;;;;3.70;65.10;;;;;;6154565;23;20405;-74
2022/03/03 02:10:46;;;;;;;;;;;3.70;64.80;;;;;;6156847;23;20327;-76
2022/03/03 02:13:13;;;;;;;;;;;3.70;65.30;;;;;;6157100;23;19917;-75
2022/03/03 02:15:46;;;;;;;;;;;3.60;65.70;;;;;;6153546;23;19978;-74
2022/03/03 02:18:13;;;;;;;;;;;3.70;65.50;;;;;;6155909;23;19916;-73
2022/03/03 02:20:39;;;;;;;;;;;3.60;65.30;;;;;;6156756;23;19916;-74
2022/03/03 02:23:06;;;;;;;;;;;3.60;65.60;;;;;;6155801;23;19967;-75
2022/03/03 02:25:33;;;;;;;;;;;3.60;65.80;;;;;;6154394;23;19916;-75
2022/03/03 02:28:00;;;;;;;;;;;3.60;65.60;;;;;;6155416;23;20238;-75
2022/03/03 02:30:26;;;;;;;;;;;3.60;66.50;;;;;;6156665;23;19924;-74
2022/03/03 02:32:53;;;;;;;;;;;3.60;66.60;;;;;;6155702;23;19916;-75
2022/03/03 02:35:20;;;;;;;;;;;3.60;66.20;;;;;;6153685;23;19920;-75
2022/03/03 02:37:47;;;;;;;;;;;3.60;66.50;;;;;;6152444;23;19916;-75
2022/03/03 02:40:20;;;;;;;;;;;3.60;66.80;;;;;;6154171;23;19916;-74
2022/03/03 02:42:51;;;;;;;;;;;3.50;66.60;;;;;;6153980;23;20303;-75
2022/03/03 02:45:18;;;;;;;;;;;3.60;66.60;;;;;;6154198;23;19921;-76
2022/03/03 02:47:46;;;;;;;;;;;3.50;66.70;;;;;;6154316;23;19920;-74
2022/03/03 02:50:13;;;;;;;;;;;3.50;66.80;;;;;;6156225;23;20239;-73
2022/03/03 02:52:40;;;;;;;;;;;3.50;67.10;;;;;;6155125;23;19939;-75
2022/03/03 02:55:07;;;;;;;;;;;3.50;66.70;;;;;;6156672;23;19920;-74
2022/03/03 03:00:19;;;;;;;;;;;3.50;68.90;;;;;;6155901;23;19916;-74
2022/03/03 03:02:46;;;;;;;;;;;3.50;69.00;;;;;;6154218;23;20419;-74
2022/03/03 03:05:13;;;;;;;;;;;3.40;69.60;;;;;;6155258;23;19923;-75
2022/03/03 03:07:40;;;;;;;;;;;3.40;69.40;;;;;;6156582;23;19917;-75
2022/03/03 03:10:07;;;;;;;;;;;3.40;69.00;;;;;;6158430;23;19921;-74
2022/03/03 03:12:34;;;;;;;;;;;3.40;69.10;;;;;;6157906;23;19971;-75
2022/03/03 03:15:01;;;;;;;;;;;3.40;69.50;;;;;;6155892;23;20334;-74
2022/03/03 03:17:28;;;;;;;;;;;3.40;69.50;;;;;;6153592;23;19917;-74
2022/03/03 03:19:55;;;;;;;;;;;3.40;70.10;;;;;;6153069;23;19967;-74
2022/03/03 03:22:22;;;;;;;;;;;3.40;70.20;;;;;;6156798;23;19917;-74
2022/03/03 03:24:48;;;;;;;;;;;3.30;70.30;;;;;;6154081;23;19920;-74
2022/03/03 03:27:15;;;;;;;;;;;3.30;71.50;;;;;;6155056;23;20308;-75
2022/03/03 03:29:42;;;;;;;;;;;3.30;70.60;;;;;;6154030;23;19916;-74
2022/03/03 03:32:08;;;;;;;;;;;3.30;69.90;;;;;;6155249;23;20349;-76
2022/03/03 03:34:35;;;;;;;;;;;3.30;70.00;;;;;;6156482;23;19920;-75
2022/03/03 03:37:02;;;;;;;;;;;3.30;69.40;;;;;;6155187;23;19917;-75
2022/03/03 03:39:30;;;;;;;;;;;3.30;68.90;;;;;;6154818;23;19916;-75
2022/03/03 03:41:56;;;;;;;;;;;3.40;68.40;;;;;;6154343;23;19920;-74
2022/03/03 03:44:23;;;;;;;;;;;3.30;67.80;;;;;;6156954;23;19928;-74
2022/03/03 03:46:50;;;;;;;;;;;3.40;68.00;;;;;;6155165;23;19967;-75
2022/03/03 03:49:17;;;;;;;;;;;3.40;67.40;;;;;;6156034;23;19923;-74
2022/03/03 03:51:43;;;;;;;;;;;3.40;67.00;;;;;;6155723;23;20258;-74
2022/03/03 03:54:10;;;;;;;;;;;3.40;66.70;;;;;;6153816;23;19917;-76
2022/03/03 03:56:37;;;;;;;;;;;3.40;66.70;;;;;;6156104;23;19967;-74
2022/03/03 03:59:03;;;;;;;;;;;3.40;66.60;;;;;;6156513;23;19916;-75
2022/03/03 04:01:31;;;;;;;;;;;3.40;66.50;;;;;;6155780;23;20393;-74
2022/03/03 04:03:58;;;;;;;;;;;3.40;66.40;;;;;;6152681;23;19951;-75
2022/03/03 04:06:25;;;;;;;;;;;3.40;66.00;;;;;;6154423;23;19971;-76
2022/03/03 04:08:52;;;;;;;;;;;3.30;65.90;;;;;;6157186;23;19923;-75
2022/03/03 04:11:19;;;;;;;;;;;3.30;66.30;;;;;;6155437;23;20257;-74
2022/03/03 04:13:45;;;;;;;;;;;3.20;66.30;;;;;;6155968;23;19975;-74
2022/03/03 04:16:12;;;;;;;;;;;3.20;66.30;;;;;;6155473;23;19920;-75
2022/03/03 04:18:39;;;;;;;;;;;3.10;66.50;;;;;;6153645;23;19917;-75
2022/03/03 04:21:06;;;;;;;;;;;3.00;67.10;;;;;;6154632;23;19967;-76
2022/03/03 04:23:33;;;;;;;;;;;2.90;66.70;;;;;;6153933;23;19916;-74
2022/03/03 04:25:59;;;;;;;;;;;2.80;66.50;;;;;;6152148;23;19967;-75
2022/03/03 04:28:26;;;;;;;;;;;2.70;66.80;;;;;;6154394;23;19927;-75
2022/03/03 04:30:53;;;;;;;;;;;2.70;67.50;;;;;;6154308;23;19917;-76
2022/03/03 04:33:19;;;;;;;;;;;2.60;67.50;;;;;;6154496;23;19923;-76
2022/03/03 04:35:50;;;;;;;;;;;2.50;67.00;;;;;;6155489;23;19923;-74
2022/03/03 04:38:16;;;;;;;;;;;2.50;67.30;;;;;;6158100;23;19916;-75
2022/03/03 04:40:43;;;;;;;;;;;2.50;67.40;;;;;;6155016;23;19923;-75
2022/03/03 04:43:10;;;;;;;;;;;2.20;68.60;;;;;;6154970;23;19976;-78
2022/03/03 04:45:37;;;;;;;;;;;2.10;69.10;;;;;;6157248;23;19971;-75
2022/03/03 04:48:04;;;;;;;;;;;2.00;68.70;;;;;;6159621;23;19921;-74
2022/03/03 04:50:31;;;;;;;;;;;1.90;69.10;;;;;;6157318;23;19916;-74
2022/03/03 04:52:59;;;;;;;;;;;1.90;68.80;;;;;;6158412;23;19916;-76
2022/03/03 04:55:26;;;;;;;;;;;1.80;69.90;;;;;;6159968;23;20467;-74
2022/03/03 04:57:52;;;;;;;;;;;1.70;70.10;;;;;;6156945;23;19924;-74
2022/03/03 05:00:19;;;;;;;;;;;1.70;69.80;;;;;;6157119;23;19917;-75
2022/03/03 05:02:46;;;;;;;;;;;1.60;69.90;;;;;;6153950;23;19932;-75
2022/03/03 05:05:13;;;;;;;;;;;1.60;69.90;;;;;;6157942;23;19966;-75
2022/03/03 05:07:40;;;;;;;;;;;1.50;70.40;;;;;;6155535;23;19970;-74
2022/03/03 05:10:07;;;;;;;;;;;1.50;70.00;;;;;;6162117;23;19923;-74
2022/03/03 05:12:34;;;;;;;;;;;1.50;70.50;;;;;;6154966;23;19971;-74
2022/03/03 05:15:01;;;;;;;;;;;1.40;70.90;;;;;;6153654;23;19991;-75
2022/03/03 05:17:28;;;;;;;;;;;1.30;71.70;;;;;;6155009;23;19923;-75
2022/03/03 05:19:57;;;;;;;;;;;1.20;73.40;;;;;;6156927;23;19923;-74
2022/03/03 05:22:24;;;;;;;;;;;1.30;74.90;;;;;;6158090;23;19988;-74
2022/03/03 05:24:53;;;;;;;;;;;1.30;74.50;;;;;;6155449;23;19968;-76
2022/03/03 05:27:20;;;;;;;;;;;1.30;74.40;;;;;;6154947;23;19917;-74
2022/03/03 05:29:47;;;;;;;;;;;1.30;74.20;;;;;;6156043;23;19924;-74
2022/03/03 05:32:13;;;;;;;;;;;1.20;74.60;;;;;;6154834;23;19916;-74
2022/03/03 05:34:40;;;;;;;;;;;1.30;73.90;;;;;;6156750;23;20334;-75
2022/03/03 05:37:07;;;;;;;;;;;1.20;73.00;;;;;;6158659;23;20431;-76
2022/03/03 05:39:36;;;;;;;;;;;1.20;72.80;;;;;;6157691;23;20404;-76
2022/03/03 05:42:03;;;;;;;;;;;1.20;72.30;;;;;;6155531;23;19916;-74
2022/03/03 05:44:30;;;;;;;;;;;1.10;71.90;;;;;;6155445;23;19944;-74
2022/03/03 05:46:57;;;;;;;;;;;1.00;71.70;;;;;;6157268;23;19916;-75
2022/03/03 05:49:25;;;;;;;;;;;1.00;71.90;;;;;;6156984;23;20242;-74
2022/03/03 05:51:52;;;;;;;;;;;0.70;74.00;;;;;;6156816;23;19917;-74
2022/03/03 05:54:19;;;;;;;;;;;0.60;73.70;;;;;;6160945;23;19920;-74
2022/03/03 05:56:48;;;;;;;;;;;0.60;73.70;;;;;;6158489;23;20356;-75
2022/03/03 05:59:15;;;;;;;;;;;0.60;72.90;;;;;;6159601;23;19916;-74
2022/03/03 06:01:42;;;;;;;;;;;0.50;72.60;;;;;;6157139;23;19916;-75
2022/03/03 06:04:13;;;;;;;;;;;0.50;73.80;;;;;;6154532;23;19916;-74
2022/03/03 06:06:43;;;;;;;;;;;0.50;73.10;;;;;;6160731;23;19924;-75
2022/03/03 06:09:14;;;;;;;;;;;0.40;72.10;;;;;;6156251;23;19946;-76
2022/03/03 06:11:54;;;;;;;;;;;0.40;73.10;;;;;;6158165;23;19917;-75
2022/03/03 06:14:23;;;;;;;;;;;0.40;72.00;;;;;;6154533;23;20293;-75
2022/03/03 06:16:50;;;;;;;;;;;0.40;72.10;;;;;;6157018;23;19916;-76
2022/03/03 06:19:20;;;;;;;;;;;0.40;73.20;;;;;;6154781;23;19916;-76
2022/03/03 06:21:47;;;;;;;;;;;0.40;73.20;;;;;;6155325;23;19916;-75
2022/03/03 06:24:13;;;;;;;;;;;0.30;73.50;;;;;;6157949;23;19921;-75
2022/03/03 06:26:40;;;;;;;;;;;0.30;73.20;;;;;;6164368;23;19916;-74
2022/03/03 06:29:07;;;;;;;;;;;0.30;73.00;;;;;;6132248;23;20452;-74
2022/03/03 06:31:34;;;;;;;;;;;0.20;73.70;;;;;;6154309;23;19917;-76
2022/03/03 06:34:01;;;;;;;;;;;0.20;73.50;;;;;;6155884;23;19916;-75
2022/03/03 06:36:27;;;;;;;;;;;0.20;73.70;;;;;;6158281;23;20261;-75
2022/03/03 06:38:54;;;;;;;;;;;0.30;74.00;;;;;;6157369;23;19925;-76
2022/03/03 06:41:22;;;;;;;;;;;0.30;73.90;;;;;;6154268;23;20330;-75
2022/03/03 06:43:49;;;;;;;;;;;0.30;74.00;;;;;;6157133;23;19963;-73
2022/03/03 06:46:18;;;;;;;;;;;0.30;74.90;;;;;;6158413;23;19924;-75
2022/03/03 06:48:45;;;;;;;;;;;0.30;73.90;;;;;;6158156;23;19916;-74
2022/03/03 06:51:13;;;;;;;;;;;0.40;74.80;;;;;;6159693;23;19917;-76
2022/03/03 06:53:42;;;;;;;;;;;0.40;74.20;;;;;;6159575;23;19923;-75
2022/03/03 06:56:10;;;;;;;;;;;0.40;74.30;;;;;;6154417;23;19983;-76
2022/03/03 06:58:38;;;;;;;;;;;0.40;74.70;;;;;;6155483;23;19917;-75
2022/03/03 07:01:09;;;;;;;;;;;0.40;74.70;;;;;;6160485;23;20277;-76
2022/03/03 07:03:36;;;;;;;;;;;0.40;75.00;;;;;;6154608;23;19920;-74
2022/03/03 07:06:04;;;;;;;;;;;0.40;75.10;;;;;;6155686;23;20401;-75
2022/03/03 07:08:31;;;;;;;;;;;0.40;74.70;;;;;;6154435;23;19967;-74
2022/03/03 07:10:58;;;;;;;;;;;0.50;75.70;;;;;;6156953;23;20250;-74
2022/03/03 07:13:25;;;;;;;;;;;0.50;78.30;;;;;;6155577;23;19923;-75
2022/03/03 07:16:03;;;;;;;;;;;0.50;76.60;;;;;;6161163;23;19916;-74
2022/03/03 07:18:35;;;;;;;;;;;0.60;76.90;;;;;;6154999;23;19916;-75
2022/03/03 07:21:03;;;;;;;;;;;0.70;77.30;;;;;;6160887;23;20393;-75
2022/03/03 07:23:37;;;;;;;;;;;0.80;78.40;;;;;;6156565;23;19917;-76
2022/03/03 07:26:05;;;;;;;;;;;0.90;78.70;;;;;;6154251;23;19923;-76
2022/03/03 07:28:34;;;;;;;;;;;1.00;77.50;;;;;;6157852;23;19924;-75
2022/03/03 07:31:03;;;;;;;;;;;1.20;78.10;;;;;;6154702;23;20397;-76
2022/03/03 07:33:42;;;;;;;;;;;1.30;76.80;;;;;;6157237;23;19952;-74
2022/03/03 07:36:09;;;;;;;;;;;1.40;76.50;;;;;;6153867;23;19920;-75
2022/03/03 07:38:37;;;;;;;;;;;1.60;76.60;;;;;;6154071;23;20262;-74
2022/03/03 07:41:04;;;;;;;;;;;1.70;76.30;;;;;;6157210;23;19923;-74
2022/03/03 07:43:31;;;;;;;;;;;1.90;76.10;;;;;;6156779;23;19923;-74
2022/03/03 07:45:58;;;;;;;;;;;2.10;75.70;;;;;;6158754;23;19917;-76
2022/03/03 07:48:25;;;;;;;;;;;2.30;75.40;;;;;;6156104;23;19968;-76
2022/03/03 07:50:52;;;;;;;;;;;2.60;74.90;;;;;;6154927;23;19916;-75
2022/03/03 07:53:18;;;;;;;;;;;2.80;74.00;;;;;;6158592;23;20318;-74
2022/03/03 07:55:46;;;;;;;;;;;3.10;72.70;;;;;;6153033;23;19955;-75
2022/03/03 07:58:20;;;;;;;;;;;3.30;72.30;;;;;;6155643;23;19975;-75
2022/03/03 08:00:51;;;;;;;;;;;3.60;70.40;;;;;;6155016;23;20258;-76
2022/03/03 08:03:19;;;;;;;;;;;4.00;68.20;;;;;;6154123;23;20420;-75
2022/03/03 08:05:50;;;;;;;;;;;4.40;66.50;;;;;;6155168;23;20365;-75
2022/03/03 08:08:20;;;;;;;;;;;4.60;64.70;;;;;;6153547;23;19916;-75
2022/03/03 08:10:47;;;;;;;;;;;4.90;63.90;;;;;;6156532;23;19967;-75
2022/03/03 08:13:15;;;;;;;;;;;5.20;62.40;;;;;;6152330;23;19967;-74
2022/03/03 08:15:42;;;;;;;;;;;5.30;61.10;;;;;;6157397;23;19917;-76
2022/03/03 08:18:09;;;;;;;;;;;5.60;61.00;;;;;;6153852;23;19917;-74
2022/03/03 08:20:38;;;;;;;;;;;5.70;59.50;;;;;;6157351;23;19920;-74
2022/03/03 08:23:05;;;;;;;;;;;5.90;59.30;;;;;;6153914;23;20401;-75
2022/03/03 08:25:33;;;;;;;;;;;6.20;58.40;;;;;;6154698;23;19916;-74
2022/03/03 08:28:01;;;;;;;;;;;6.40;58.50;;;;;;6155607;23;19916;-75
2022/03/03 08:30:28;;;;;;;;;;;6.70;56.30;;;;;;6159071;23;19916;-75
2022/03/03 08:33:02;;;;;;;;;;;6.90;54.60;;;;;;6158887;23;19944;-75
2022/03/03 08:35:36;;;;;;;;;;;7.10;55.80;;;;;;6154541;23;19917;-74
2022/03/03 08:38:08;;;;;;;;;;;7.30;56.40;;;;;;6152699;23;20398;-75
2022/03/03 08:40:35;;;;;;;;;;;7.60;55.80;;;;;;6154221;23;20368;-74
2022/03/03 08:43:04;;;;;;;;;;;7.80;54.90;;;;;;6153546;23;19940;-74
2022/03/03 08:45:32;;;;;;;;;;;7.90;53.30;;;;;;6153430;23;19924;-75
2022/03/03 08:48:01;;;;;;;;;;;8.10;51.90;;;;;;6152360;23;19967;-75
2022/03/03 08:50:31;;;;;;;;;;;8.10;51.50;;;;;;6155843;23;20342;-75
2022/03/03 08:52:59;;;;;;;;;;;8.20;51.80;;;;;;6155897;23;19916;-75
2022/03/03 08:55:27;;;;;;;;;;;8.40;50.50;;;;;;6156522;23;19979;-75
2022/03/03 08:57:54;;;;;;;;;;;8.50;50.50;;;;;;6154642;23;19916;-75
2022/03/03 09:00:21;;;;;;;;;;;8.70;49.70;;;;;;6160456;23;19923;-76
2022/03/03 09:02:48;;;;;;;;;;;8.90;49.00;;;;;;6154529;23;19971;-75
2022/03/03 09:05:16;;;;;;;;;;;9.10;48.40;;;;;;6147004;23;20235;-76
2022/03/03 09:07:43;;;;;;;;;;;9.20;46.60;;;;;;6153054;23;19916;-75
2022/03/03 09:10:09;;;;;;;;;;;9.40;46.50;;;;;;6154377;23;20330;-75
2022/03/03 09:12:36;;;;;;;;;;;9.50;45.50;;;;;;6153026;23;20330;-74
2022/03/03 09:15:04;;;;;;;;;;;9.60;46.70;;;;;;6154557;23;19917;-75
2022/03/03 09:17:33;;;;;;;;;;;9.70;44.70;;;;;;6161256;23;19940;-75
2022/03/03 09:20:03;;;;;;;;;;;9.90;44.00;;;;;;6158981;23;19916;-77
2022/03/03 09:22:29;;;;;;;;;;;10.00;43.10;;;;;;6160691;23;19964;-75
2022/03/03 09:24:56;;;;;;;;;;;10.10;42.30;;;;;;6155920;23;19920;-77
2022/03/03 09:27:24;;;;;;;;;;;10.30;40.80;;;;;;6152317;23;19924;-75
2022/03/03 09:37:57;;;;;;;;;;;10.40;38.90;;;;;;6092486;23;19923;-75
2022/03/03 09:40:24;;;;;;;;;;;10.40;39.10;;;;;;6171228;23;20301;-75
2022/03/03 09:42:55;;;;;;;;;;;10.50;40.90;;;;;;6176647;23;19917;-75
2022/03/03 09:45:21;;;;;;;;;;;10.50;39.80;;;;;;6178734;23;19971;-77
2022/03/03 09:47:49;;;;;;;;;;;10.50;40.30;;;;;;6177391;23;19939;-76
2022/03/03 09:50:16;;;;;;;;;;;10.40;40.60;;;;;;6156115;23;19967;-75
2022/03/03 09:52:44;;;;;;;;;;;10.60;41.50;;;;;;6178732;23;19927;-77
2022/03/03 09:55:11;;;;;;;;;;;10.50;40.00;;;;;;6155213;23;19948;-75
2022/03/03 09:57:38;;;;;;;;;;;10.40;40.80;;;;;;6179802;23;19967;-75
2022/03/03 10:00:07;;;;;;;;;;;10.60;41.30;;;;;;6179325;23;19976;-77
2022/03/03 10:02:53;;;;;;;;;;;10.70;40.90;;;;;;6156289;23;19917;-76
2022/03/03 10:05:39;;;;;;;;;;;10.70;40.40;;;;;;6143154;23;19971;-76
2022/03/03 10:08:07;;;;;;;;;;;10.80;41.00;;;;;;6154101;23;19916;-75
2022/03/03 10:10:35;;;;;;;;;;;10.90;40.00;;;;;;6156448;23;19975;-75
2022/03/03 10:13:03;;;;;;;;;;;11.10;39.50;;;;;;6155584;23;20333;-76
2022/03/03 10:15:30;;;;;;;;;;;11.20;39.40;;;;;;6156530;23;19973;-75
2022/03/03 10:17:58;;;;;;;;;;;11.30;38.70;;;;;;6155333;23;19983;-76
2022/03/03 10:20:26;;;;;;;;;;;11.40;38.20;;;;;;6179317;23;19916;-77
2022/03/03 10:22:57;;;;;;;;;;;11.60;38.10;;;;;;6179664;23;19991;-75
2022/03/03 10:25:28;;;;;;;;;;;11.60;38.20;;;;;;6153943;23;20494;-75
2022/03/03 10:27:55;;;;;;;;;;;11.70;39.00;;;;;;6155987;23;19921;-76
2022/03/03 10:30:22;;;;;;;;;;;11.80;37.20;;;;;;6153615;23;19916;-77
2022/03/03 10:32:49;;;;;;;;;;;11.90;37.50;;;;;;6154176;23;19916;-75
2022/03/03 10:35:17;;;;;;;;;;;12.00;37.40;;;;;;6155316;23;20249;-75
2022/03/03 10:37:45;;;;;;;;;;;12.00;36.20;;;;;;6156009;23;19916;-77
2022/03/03 10:40:14;;;;;;;;;;;11.90;35.50;;;;;;6155135;23;19952;-77
2022/03/03 10:42:50;;;;;;;;;;;11.90;36.00;;;;;;6156220;23;19916;-75
2022/03/03 10:45:19;;;;;;;;;;;11.90;36.30;;;;;;6152974;23;19917;-75
2022/03/03 10:47:58;;;;;;;;;;;12.10;36.50;;;;;;6156255;23;20352;-76
2022/03/03 10:50:25;;;;;;;;;;;12.10;35.30;;;;;;6154124;23;20319;-75
2022/03/03 10:52:52;;;;;;;;;;;12.20;35.60;;;;;;6154869;23;19924;-76
2022/03/03 10:55:20;;;;;;;;;;;12.20;35.40;;;;;;6154970;23;19920;-76
2022/03/03 10:57:58;;;;;;;;;;;12.10;35.10;;;;;;6154314;23;20253;-76
2022/03/03 11:00:29;;;;;;;;;;;12.10;35.10;;;;;;6154665;23;19920;-75
2022/03/03 11:02:57;;;;;;;;;;;12.10;35.40;;;;;;6154605;23;19924;-75
2022/03/03 11:05:25;;;;;;;;;;;12.00;35.50;;;;;;6153190;23;20248;-76
2022/03/03 11:07:53;;;;;;;;;;;12.20;36.90;;;;;;6155446;23;20113;-76
2022/03/03 11:10:21;;;;;;;;;;;12.30;35.80;;;;;;6153667;23;19971;-75
2022/03/03 11:12:48;;;;;;;;;;;12.50;35.80;;;;;;6154574;23;19963;-77
2022/03/03 11:15:16;;;;;;;;;;;12.70;35.90;;;;;;6154507;23;19917;-75
2022/03/03 11:17:44;;;;;;;;;;;12.80;35.20;;;;;;6154621;23;20413;-77
2022/03/03 11:20:12;;;;;;;;;;;12.90;35.00;;;;;;6153851;23;19916;-75
2022/03/03 11:22:40;;;;;;;;;;;12.90;34.00;;;;;;6154267;23;19967;-75
2022/03/03 11:25:09;;;;;;;;;;;12.90;34.40;;;;;;6155188;23;19932;-75
2022/03/03 11:27:37;;;;;;;;;;;13.00;35.80;;;;;;6155217;23;19916;-75
2022/03/03 11:30:11;;;;;;;;;;;13.10;34.70;;;;;;6154716;23;19923;-75
2022/03/03 11:32:38;;;;;;;;;;;13.00;34.20;;;;;;6153536;23;19978;-78
2022/03/03 11:35:09;;;;;;;;;;;13.10;34.50;;;;;;6154266;23;20248;-77
2022/03/03 11:37:40;;;;;;;;;;;13.20;34.70;;;;;;6156060;23;20396;-76
2022/03/03 11:40:08;;;;;;;;;;;13.40;33.10;;;;;;6178239;23;20284;-75
2022/03/03 11:42:36;;;;;;;;;;;13.50;34.30;;;;;;6153770;23;19921;-74
2022/03/03 11:45:08;;;;;;;;;;;13.60;34.20;;;;;;6153068;23;19948;-74
2022/03/03 11:47:37;;;;;;;;;;;13.70;33.60;;;;;;6153832;23;20293;-76
2022/03/03 11:50:16;;;;;;;;;;;13.70;32.50;;;;;;6154854;23;19924;-76
2022/03/03 11:52:44;;;;;;;;;;;13.80;32.80;;;;;;6154164;23;20242;-75
2022/03/03 11:55:29;;;;;;;;;;;13.70;33.20;;;;;;6152857;23;20292;-75
2022/03/03 11:58:00;;;;;;;;;;;14.00;35.00;;;;;;6155896;23;20336;-76
2022/03/03 12:00:28;;;;;;;;;;;13.90;32.90;;;;;;6152960;23;20429;-75
2022/03/03 12:02:59;;;;;;;;;;;13.90;33.40;;;;;;6155641;23;19971;-78
2022/03/03 12:05:41;;;;;;;;;;;13.80;32.90;;;;;;6152994;23;19917;-75
2022/03/03 12:08:11;;;;;;;;;;;13.90;33.80;;;;;;6152271;23;19923;-76
2022/03/03 12:10:55;;;;;;;;;;;14.00;33.10;;;;;;6153637;23;19971;-78
2022/03/03 12:13:34;;;;;;;;;;;14.10;33.10;;;;;;6154867;23;19921;-75
2022/03/03 12:16:20;;;;;;;;;;;14.40;34.00;;;;;;6155492;23;20244;-76
2022/03/03 12:18:48;;;;;;;;;;;14.60;32.70;;;;;;6154436;23;19999;-75
2022/03/03 12:21:21;;;;;;;;;;;14.70;32.30;;;;;;6178346;23;19971;-76
2022/03/03 12:23:48;;;;;;;;;;;14.90;32.30;;;;;;6128572;23;19944;-75
2022/03/03 12:26:15;;;;;;;;;;;14.60;31.80;;;;;;6153605;23;19948;-79
2022/03/03 12:28:45;;;;;;;;;;;14.80;32.80;;;;;;6154282;23;19982;-75
2022/03/03 12:31:18;;;;;;;;;;;14.90;32.30;;;;;;6153303;23;19976;-76
2022/03/03 12:34:02;;;;;;;;;;;14.90;32.10;;;;;;6152805;23;19920;-75
2022/03/03 12:36:30;;;;;;;;;;;15.20;33.40;;;;;;6153306;23;19916;-77
2022/03/03 12:38:57;;;;;;;;;;;15.20;31.50;;;;;;6153502;23;19917;-75
2022/03/03 12:41:24;;;;;;;;;;;15.10;30.80;;;;;;6153564;23;20337;-77
2022/03/03 12:43:52;;;;;;;;;;;14.90;32.00;;;;;;6154522;23;19917;-75
2022/03/03 12:46:18;;;;;;;;;;;15.00;31.90;;;;;;6153531;23;19916;-77
2022/03/03 12:48:46;;;;;;;;;;;15.10;32.00;;;;;;6152673;23;20011;-75
2022/03/03 12:51:14;;;;;;;;;;;15.10;32.50;;;;;;6154910;23;19967;-76
2022/03/03 12:53:43;;;;;;;;;;;15.40;32.20;;;;;;6152306;23;20337;-78
2022/03/03 12:56:22;;;;;;;;;;;15.50;31.60;;;;;;6155143;23;19920;-78
2022/03/03 12:58:49;;;;;;;;;;;15.60;31.80;;;;;;6152285;23;19967;-77
2022/03/03 13:01:20;;;;;;;;;;;15.30;31.90;;;;;;6155460;23;19917;-75
2022/03/03 13:03:47;;;;;;;;;;;15.30;32.70;;;;;;6153420;23;19989;-75
2022/03/03 13:06:17;;;;;;;;;;;15.10;32.10;;;;;;6154318;23;19923;-76
2022/03/03 13:08:44;;;;;;;;;;;15.50;32.30;;;;;;6155040;23;19987;-77
2022/03/03 13:11:16;;;;;;;;;;;15.70;32.40;;;;;;6155252;23;19940;-75
2022/03/03 13:13:54;;;;;;;;;;;15.90;32.50;;;;;;6156307;23;20396;-75
2022/03/03 13:16:26;;;;;;;;;;;16.10;32.30;;;;;;6154989;23;19916;-77
2022/03/03 13:18:54;;;;;;;;;;;16.30;32.00;;;;;;6154756;23;19917;-75
2022/03/03 13:21:23;;;;;;;;;;;16.20;30.20;;;;;;6154824;23;19916;-75
2022/03/03 13:23:53;;;;;;;;;;;15.80;31.00;;;;;;6154345;23;19975;-78
2022/03/03 13:26:22;;;;;;;;;;;15.50;32.10;;;;;;6180002;23;19944;-78
2022/03/03 13:28:52;;;;;;;;;;;15.40;32.00;;;;;;6155567;23;19932;-75
2022/03/03 13:31:19;;;;;;;;;;;15.50;32.90;;;;;;6156858;23;20337;-75
2022/03/03 13:33:46;;;;;;;;;;;15.70;32.40;;;;;;6153897;23;20396;-76
2022/03/03 13:36:14;;;;;;;;;;;15.70;31.70;;;;;;6155477;23;19917;-75
2022/03/03 13:38:42;;;;;;;;;;;15.90;32.50;;;;;;6155381;23;19963;-76
2022/03/03 13:41:21;;;;;;;;;;;15.90;31.00;;;;;;6155317;23;19921;-75
2022/03/03 13:43:48;;;;;;;;;;;15.70;31.30;;;;;;6156167;23;20321;-78
2022/03/03 13:46:31;;;;;;;;;;;15.40;31.80;;;;;;6155039;23;19917;-75
2022/03/03 13:48:58;;;;;;;;;;;15.50;32.90;;;;;;6153646;23;19996;-75
2022/03/03 13:51:25;;;;;;;;;;;15.60;32.10;;;;;;6155858;23;19917;-75
2022/03/03 13:53:55;;;;;;;;;;;15.60;31.60;;;;;;6155742;23;20016;-75
2022/03/03 13:56:25;;;;;;;;;;;15.70;31.40;;;;;;6155725;23;19917;-75
2022/03/03 13:59:09;;;;;;;;;;;15.70;32.00;;;;;;6153881;23;20329;-75
2022/03/03 14:01:36;;;;;;;;;;;15.90;31.50;;;;;;6153549;23;19920;-77
2022/03/03 14:04:08;;;;;;;;;;;15.80;31.90;;;;;;6154329;23;20241;-77
2022/03/03 14:06:42;;;;;;;;;;;15.90;32.00;;;;;;6153799;23;19940;-75
2022/03/03 14:09:30;;;;;;;;;;;15.90;31.40;;;;;;6179812;23;19920;-75
2022/03/03 14:12:14;;;;;;;;;;;15.70;31.00;;;;;;6153139;23;19916;-76
2022/03/03 14:14:45;;;;;;;;;;;15.50;31.50;;;;;;6154540;23;19916;-78
2022/03/03 14:17:13;;;;;;;;;;;15.70;31.80;;;;;;6155551;23;20004;-75
2022/03/03 14:19:41;;;;;;;;;;;15.90;31.90;;;;;;6155035;23;19917;-77
2022/03/03 14:22:07;;;;;;;;;;;15.70;31.30;;;;;;6154611;23;19916;-78
2022/03/03 14:24:36;;;;;;;;;;;16.00;32.20;;;;;;6155864;23;19916;-76
2022/03/03 14:27:03;;;;;;;;;;;16.00;31.60;;;;;;6154695;23;19979;-76
2022/03/03 14:29:31;;;;;;;;;;;15.80;31.00;;;;;;6155008;23;20304;-76
2022/03/03 14:31:57;;;;;;;;;;;15.80;31.60;;;;;;6155273;23;19945;-77
2022/03/03 14:34:24;;;;;;;;;;;15.70;31.70;;;;;;6155987;23;20234;-75
2022/03/03 14:36:51;;;;;;;;;;;15.80;31.60;;;;;;6153071;23;19967;-76
2022/03/03 14:39:18;;;;;;;;;;;16.00;31.40;;;;;;6153743;23;19923;-75
2022/03/03 14:41:45;;;;;;;;;;;15.90;31.40;;;;;;6154652;23;19932;-77
2022/03/03 14:44:12;;;;;;;;;;;15.90;30.90;;;;;;6155746;23;19959;-77